< < Back
Terminal Aerodrome Forecast


Current Version              Previous Versions:   1  2  3  4  5  6  7  8  9  

Terminal Aerodrome Forecast

010
FTUS42 KCHS 040524
TAFCHS
TAF
KCHS 040524Z 0406/0506 VRB03KT P6SM FEW035 BKN250
     FM041800 14007KT P6SM SCT050 SCT250
     FM050000 17003KT P6SM SCT040 SCT250=

Latest METAR

990
SAUS80 KWBC 040900 RRB
MTRCHS
METAR KCHS 040856Z 00000KT 10SM FEW250 25/23 A2992 RMK AO2 SLP130
T02500233 55000


USA.gov is the U.S. government's official web portal to all federal, state and local government web resources and services.